createdAt,value
2022-12-24T00:01:01.854Z,99701.22
2022-12-24T00:03:28.869Z,99706.41
2022-12-24T00:05:55.651Z,99717.69
2022-12-24T00:08:22.454Z,99715.91
2022-12-24T00:10:53.309Z,99720.28
2022-12-24T00:13:20.589Z,99720.28
2022-12-24T00:15:47.528Z,99708.16
2022-12-24T00:18:14.195Z,99719.44
2022-12-24T00:20:40.896Z,99726.38
2022-12-24T00:23:07.901Z,99722.00
2022-12-24T00:25:34.637Z,99727.22
2022-12-24T00:28:01.257Z,99725.50
2022-12-24T00:30:27.992Z,99735.88
2022-12-24T00:32:54.602Z,99737.59
2022-12-24T00:35:21.919Z,99745.41
2022-12-24T00:37:49.524Z,99734.13
2022-12-24T00:40:17.528Z,99742.81
2022-12-24T00:42:44.442Z,99738.47
2022-12-24T00:45:12.214Z,99738.50
2022-12-24T00:47:38.819Z,99763.59
2022-12-24T00:50:06.075Z,99758.41
2022-12-24T00:52:32.665Z,99774.88
2022-12-24T00:54:59.253Z,99775.75
2022-12-24T00:57:26.243Z,99776.56
2022-12-24T00:59:52.771Z,99776.63
2022-12-24T01:02:19.669Z,99786.13
2022-12-24T01:05:05.111Z,99793.06
2022-12-24T01:07:31.832Z,99796.53
2022-12-24T01:09:58.346Z,99800.00
2022-12-24T01:12:25.519Z,99799.97
2022-12-24T01:14:52.164Z,99803.44
2022-12-24T01:17:19.087Z,99804.34
2022-12-24T01:19:45.651Z,99812.13
2022-12-24T01:22:12.319Z,99812.97
2022-12-24T01:24:41.497Z,99820.78
2022-12-24T01:27:08.196Z,99826.84
2022-12-24T01:29:34.968Z,99831.19
2022-12-24T01:32:01.645Z,99830.34
2022-12-24T01:34:28.255Z,99839.81
2022-12-24T01:36:54.903Z,99837.25
2022-12-24T01:39:23.179Z,99843.28
2022-12-24T01:42:11.338Z,99849.31
2022-12-24T01:44:44.212Z,99854.56
2022-12-24T01:47:13.450Z,99854.53
2022-12-24T01:50:13.409Z,99853.69
2022-12-24T01:52:40.004Z,99864.91
2022-12-24T01:55:23.899Z,99865.78
2022-12-24T01:57:55.001Z,99864.94
2022-12-24T02:00:22.174Z,99874.47
2022-12-24T02:02:53.069Z,99882.25
2022-12-24T02:05:50.444Z,99886.63
2022-12-24T02:08:18.636Z,99890.09
2022-12-24T02:10:46.838Z,99894.41
2022-12-24T02:13:15.986Z,99887.44
2022-12-24T02:16:10.417Z,99897.88
2022-12-24T02:18:55.184Z,99902.25
2022-12-24T02:21:42.025Z,99903.94
2022-12-24T02:24:37.933Z,99904.81
2022-12-24T02:27:14.423Z,99903.06
2022-12-24T02:29:43.936Z,99917.78
2022-12-24T02:32:24.384Z,99915.16
2022-12-24T02:35:05.689Z,99918.69
2022-12-24T02:37:37.116Z,99933.34
2022-12-24T02:40:16.046Z,99921.25
2022-12-24T02:42:51.329Z,99945.50
2022-12-24T02:45:22.113Z,99942.88
2022-12-24T02:47:50.587Z,99935.97
2022-12-24T02:50:17.837Z,99939.53
2022-12-24T02:52:46.393Z,99947.19
2022-12-24T02:55:20.860Z,99935.06
2022-12-24T02:57:54.767Z,99950.53
2022-12-24T03:00:25.723Z,99964.50
2022-12-24T03:03:19.352Z,99961.06
2022-12-24T03:06:10.853Z,99968.03
2022-12-24T03:08:56.562Z,99967.91
2022-12-24T03:11:23.515Z,99979.16
2022-12-24T03:13:51.676Z,99979.28
2022-12-24T03:16:24.681Z,99980.91
2022-12-24T03:18:53.632Z,99999.09
2022-12-24T03:21:35.061Z,99991.38
2022-12-24T03:24:02.167Z,99991.31
2022-12-24T03:26:30.760Z,100000.00
2022-12-24T03:28:57.417Z,100004.28
2022-12-24T03:31:24.169Z,100004.34
2022-12-24T03:33:51.096Z,100012.13
2022-12-24T03:36:18.242Z,100020.03
2022-12-24T03:38:47.827Z,100022.63
2022-12-24T03:41:14.346Z,100021.72
2022-12-24T03:43:40.909Z,100031.16
2022-12-24T03:46:08.463Z,100026.03
2022-12-24T03:48:35.719Z,100027.69
2022-12-24T03:51:03.090Z,100035.53
2022-12-24T03:53:29.685Z,100030.41
2022-12-24T03:55:56.349Z,100032.13
2022-12-24T03:58:26.018Z,100034.66
2022-12-24T04:00:53.052Z,100038.97
2022-12-24T04:03:19.649Z,100046.78
2022-12-24T04:05:46.223Z,100041.44
2022-12-24T04:08:12.746Z,100047.69
2022-12-24T04:10:39.357Z,100044.16
2022-12-24T04:13:05.873Z,100049.38
2022-12-24T04:15:32.412Z,100048.56
2022-12-24T04:17:59.016Z,100059.00
2022-12-24T04:20:25.610Z,100053.66
2022-12-24T04:22:53.020Z,100068.34
2022-12-24T04:25:19.540Z,100073.56
2022-12-24T04:27:46.084Z,100078.72
2022-12-24T04:30:12.818Z,100075.19
2022-12-24T04:32:39.322Z,100069.28
2022-12-24T04:35:06.197Z,100084.09
2022-12-24T04:37:33.896Z,100081.44
2022-12-24T04:40:00.548Z,100082.28
2022-12-24T04:42:27.358Z,100085.69
2022-12-24T04:44:53.932Z,100090.78
2022-12-24T04:47:20.462Z,100085.81
2022-12-24T04:49:47.054Z,100098.72
2022-12-24T04:52:13.705Z,100109.25
2022-12-24T04:54:40.272Z,100110.06
2022-12-24T04:57:06.878Z,100120.53
2022-12-24T04:59:33.426Z,100106.59
2022-12-24T05:02:00.173Z,100115.09
2022-12-24T05:04:26.876Z,100113.56
2022-12-24T05:06:53.424Z,100103.09
2022-12-24T05:09:20.044Z,100109.13
2022-12-24T05:11:46.618Z,100124.63
2022-12-24T05:14:13.153Z,100128.03
2022-12-24T05:16:39.892Z,100121.97
2022-12-24T05:19:06.787Z,100128.97
2022-12-24T05:21:33.401Z,100131.44
2022-12-24T05:24:18.687Z,100121.88
2022-12-24T05:26:57.438Z,100137.28
2022-12-24T05:29:24.179Z,100137.53
2022-12-24T05:31:50.739Z,100136.84
2022-12-24T05:34:17.445Z,100140.13
2022-12-24T05:36:44.555Z,100140.13
2022-12-24T05:39:18.662Z,100147.78
2022-12-24T05:41:46.035Z,100141.84
2022-12-24T05:44:12.923Z,100152.31
2022-12-24T05:46:39.575Z,100149.53
2022-12-24T05:49:06.518Z,100159.88
2022-12-24T05:51:33.077Z,100160.72
2022-12-24T05:53:59.755Z,100159.09
2022-12-24T05:56:26.576Z,100153.13
2022-12-24T05:58:54.612Z,100152.22
2022-12-24T06:01:22.795Z,100168.50
2022-12-24T06:04:04.958Z,100172.00
2022-12-24T06:06:31.613Z,100173.03
2022-12-24T06:08:58.256Z,100166.94
2022-12-24T06:11:26.680Z,100177.22
2022-12-24T06:13:54.220Z,100163.38
2022-12-24T06:16:21.902Z,100165.00
2022-12-24T06:18:48.609Z,100157.44
2022-12-24T06:21:15.724Z,100166.97
2022-12-24T06:23:43.930Z,100168.66
2022-12-24T06:26:16.459Z,100174.59
2022-12-24T06:28:43.819Z,100172.31
2022-12-24T06:31:16.103Z,100171.38
2022-12-24T06:33:43.248Z,100166.28
2022-12-24T06:36:17.581Z,100168.53
2022-12-24T06:38:45.946Z,100179.97
2022-12-24T06:41:12.577Z,100172.25
2022-12-24T06:43:39.449Z,100178.34
2022-12-24T06:46:06.056Z,100180.25
2022-12-24T06:48:32.737Z,100181.72
2022-12-24T06:51:03.136Z,100176.53
2022-12-24T06:53:30.633Z,100172.25
2022-12-24T06:56:05.287Z,100175.78
2022-12-24T06:58:32.567Z,100200.75
2022-12-24T07:01:01.981Z,100199.97
2022-12-24T07:03:29.197Z,100197.31
2022-12-24T07:05:55.829Z,100205.16
2022-12-24T07:08:22.418Z,100201.53
2022-12-24T07:10:54.113Z,100208.59
2022-12-24T07:13:21.183Z,100216.31
2022-12-24T07:15:47.709Z,100215.66
2022-12-24T07:18:14.489Z,100221.81
2022-12-24T07:20:42.617Z,100225.06
2022-12-24T07:23:09.169Z,100221.56
2022-12-24T07:25:35.777Z,100229.38
2022-12-24T07:28:02.360Z,100227.63
2022-12-24T07:30:28.928Z,100231.06
2022-12-24T07:32:55.570Z,100224.25
2022-12-24T07:35:22.102Z,100233.75
2022-12-24T07:37:48.663Z,100239.78
2022-12-24T07:40:15.322Z,100245.03
2022-12-24T07:42:41.906Z,100249.25
2022-12-24T07:45:09.144Z,100251.84
2022-12-24T07:47:35.808Z,100252.78
2022-12-24T07:50:04.082Z,100246.81
2022-12-24T07:52:32.156Z,100256.28
2022-12-24T07:54:58.734Z,100251.09
2022-12-24T07:57:25.295Z,100251.16
2022-12-24T07:59:51.837Z,100256.28
2022-12-24T08:02:18.988Z,100267.50
2022-12-24T08:04:45.761Z,100263.16
2022-12-24T08:07:37.448Z,100263.00
2022-12-24T08:10:04.362Z,100271.00
2022-12-24T08:12:30.832Z,100274.56
2022-12-24T08:14:57.405Z,100277.00
2022-12-24T08:17:30.181Z,100279.66
2022-12-24T08:19:58.835Z,100280.66
2022-12-24T08:22:25.896Z,100284.84
2022-12-24T08:24:52.853Z,100279.56
2022-12-24T08:27:19.752Z,100278.88
2022-12-24T08:29:46.443Z,100286.03
2022-12-24T08:32:12.988Z,100283.50
2022-12-24T08:34:39.575Z,100287.78
2022-12-24T08:37:06.433Z,100297.16
2022-12-24T08:39:33.051Z,100303.19
2022-12-24T08:41:59.732Z,100303.13
2022-12-24T08:44:26.862Z,100300.63
2022-12-24T08:46:53.674Z,100314.59
2022-12-24T08:49:20.383Z,100317.00
2022-12-24T08:51:47.156Z,100327.56
2022-12-24T08:54:13.785Z,100326.53
2022-12-24T08:56:40.432Z,100328.19
2022-12-24T08:59:07.234Z,100337.13
2022-12-24T09:01:34.781Z,100337.00
2022-12-24T09:04:02.308Z,100343.13
2022-12-24T09:06:28.953Z,100344.81
2022-12-24T09:08:57.034Z,100343.81
2022-12-24T09:11:24.442Z,100361.28
2022-12-24T09:13:51.177Z,100360.31
2022-12-24T09:16:18.109Z,100359.75
2022-12-24T09:18:44.736Z,100360.66
2022-12-24T09:21:18.681Z,100370.72
2022-12-24T09:23:47.876Z,100372.69
2022-12-24T09:26:17.886Z,100371.06
2022-12-24T09:28:44.980Z,100373.69
2022-12-24T09:31:12.900Z,100381.47
2022-12-24T09:33:41.672Z,100398.88
2022-12-24T09:36:09.118Z,100404.84
2022-12-24T09:38:36.954Z,100411.03
2022-12-24T09:41:15.610Z,100418.63
2022-12-24T09:43:49.160Z,100416.13
2022-12-24T09:46:50.944Z,100423.19
2022-12-24T09:49:21.692Z,100415.38
2022-12-24T09:51:53.965Z,100420.50
2022-12-24T09:54:26.709Z,100429.22
2022-12-24T09:56:54.952Z,100436.28
2022-12-24T09:59:25.558Z,100448.44
2022-12-24T10:01:55.029Z,100439.75
2022-12-24T10:04:26.811Z,100438.69
2022-12-24T10:07:37.009Z,100440.44
2022-12-24T10:10:12.328Z,100441.31
2022-12-24T10:13:08.622Z,100444.88
2022-12-24T10:15:49.962Z,100448.53
2022-12-24T10:18:30.886Z,100462.34
2022-12-24T10:21:16.529Z,100452.94
2022-12-24T10:24:06.280Z,100452.03
2022-12-24T10:27:17.906Z,100455.44
2022-12-24T10:29:53.363Z,100459.78
2022-12-24T10:32:32.975Z,100462.41
2022-12-24T10:35:02.298Z,100458.09
2022-12-24T10:37:30.245Z,100452.09
2022-12-24T10:39:58.946Z,100458.16
2022-12-24T10:42:50.269Z,100469.38
2022-12-24T10:45:21.376Z,100457.22
2022-12-24T10:47:52.844Z,100455.34
2022-12-24T10:53:44.487Z,100466.53
2022-12-24T10:56:16.855Z,100465.81
2022-12-24T10:58:45.612Z,100475.53
2022-12-24T11:01:13.481Z,100471.28
2022-12-24T11:03:40.334Z,100467.84
2022-12-24T11:06:24.916Z,100474.66
2022-12-24T11:08:51.646Z,100478.97
2022-12-24T11:11:21.116Z,100486.84
2022-12-24T11:13:50.546Z,100483.31
2022-12-24T11:16:17.162Z,100493.03
2022-12-24T11:22:29.868Z,100474.88
2022-12-24T11:24:59.575Z,100480.03
2022-12-24T11:27:41.736Z,100469.84
2022-12-24T11:30:20.686Z,100476.66
2022-12-24T11:33:00.605Z,100483.59
2022-12-24T11:35:29.138Z,100474.97
2022-12-24T11:38:01.611Z,100481.13
2022-12-24T11:40:44.971Z,100475.22
2022-12-24T11:43:18.639Z,100472.50
2022-12-24T11:45:54.612Z,100476.09
2022-12-24T11:48:31.360Z,100478.69
2022-12-24T11:51:00.528Z,100475.19
2022-12-24T11:53:51.422Z,100476.84
2022-12-24T11:56:43.285Z,100481.13
2022-12-24T11:59:22.357Z,100479.31
2022-12-24T12:02:02.754Z,100469.91
2022-12-24T12:04:38.004Z,100472.53
2022-12-24T12:07:15.021Z,100478.72
2022-12-24T12:09:48.176Z,100472.50
2022-12-24T12:12:24.128Z,100478.75
2022-12-24T12:14:55.884Z,100487.19
2022-12-24T12:17:29.818Z,100475.13
2022-12-24T12:20:04.009Z,100490.75
2022-12-24T12:22:56.923Z,100497.63
2022-12-24T12:25:30.185Z,100496.84
2022-12-24T12:27:58.408Z,100505.59
2022-12-24T12:30:25.662Z,100501.03
2022-12-24T12:32:58.364Z,100504.69
2022-12-24T12:35:31.889Z,100496.81
2022-12-24T12:38:05.611Z,100506.44
2022-12-24T12:41:03.304Z,100510.63
2022-12-24T12:44:17.903Z,100508.16
2022-12-24T12:46:59.606Z,100507.41
2022-12-24T12:49:40.697Z,100503.94
2022-12-24T12:52:17.114Z,100508.34
2022-12-24T12:55:04.948Z,100527.38
2022-12-24T12:57:37.663Z,100525.53
2022-12-24T13:00:10.853Z,100530.78
2022-12-24T13:02:56.473Z,100531.75
2022-12-24T13:05:57.150Z,100535.91
2022-12-24T13:08:53.870Z,100536.06
2022-12-24T13:12:00.136Z,100548.00
2022-12-24T13:14:42.610Z,100552.38
2022-12-24T13:17:40.882Z,100552.34
2022-12-24T13:20:46.915Z,100548.94
2022-12-24T13:23:19.040Z,100541.03
2022-12-24T13:25:49.789Z,100552.28
2022-12-24T13:28:20.609Z,100553.25
2022-12-24T13:30:53.580Z,100553.25
2022-12-24T13:33:35.491Z,100555.00
2022-12-24T13:36:07.882Z,100562.03
2022-12-24T13:38:42.738Z,100559.47
2022-12-24T13:41:42.256Z,100576.88
2022-12-24T13:44:17.999Z,100570.72
2022-12-24T13:46:57.831Z,100572.50
2022-12-24T13:49:58.272Z,100588.63
2022-12-24T13:52:28.979Z,100578.31
2022-12-24T13:54:55.467Z,100591.50
2022-12-24T13:57:36.919Z,100590.47
2022-12-24T14:00:12.811Z,100599.19
2022-12-24T14:03:00.414Z,100593.94
2022-12-24T14:05:30.505Z,100591.47
2022-12-24T14:07:58.684Z,100592.88
2022-12-24T14:11:08.579Z,100615.59
2022-12-24T14:13:38.418Z,100607.84
2022-12-24T14:19:48.171Z,100598.38
2022-12-24T14:22:27.459Z,100602.69
2022-12-24T14:25:02.715Z,100609.78
2022-12-24T14:27:58.927Z,100617.59
2022-12-24T14:30:30.763Z,100624.22
2022-12-24T14:32:57.625Z,100626.84
2022-12-24T14:35:41.991Z,100626.16
2022-12-24T14:38:15.406Z,100625.81
2022-12-24T14:41:07.962Z,100634.53
2022-12-24T14:43:56.443Z,100646.78
2022-12-24T14:46:32.873Z,100653.75
2022-12-24T14:49:05.136Z,100655.53
2022-12-24T14:51:50.468Z,100659.91
2022-12-24T14:54:45.268Z,100650.19
2022-12-24T14:57:12.351Z,100669.09
2022-12-24T14:59:47.681Z,100682.94
2022-12-24T15:02:47.284Z,100686.34
2022-12-24T15:05:19.659Z,100688.16
2022-12-24T15:08:01.183Z,100682.13
2022-12-24T15:10:32.721Z,100679.50
2022-12-24T15:13:04.985Z,100700.44
2022-12-24T15:15:32.479Z,100697.56
2022-12-24T15:18:00.395Z,100702.75
2022-12-24T15:20:28.883Z,100704.59
2022-12-24T15:22:58.756Z,100719.19
2022-12-24T15:25:31.295Z,100708.72
2022-12-24T15:27:59.130Z,100705.97
2022-12-24T15:30:28.759Z,100709.25
2022-12-24T15:32:57.839Z,100703.16
2022-12-24T15:36:03.098Z,100712.34
2022-12-24T15:38:34.323Z,100723.75
2022-12-24T15:41:04.924Z,100721.16
2022-12-24T15:43:32.780Z,100727.28
2022-12-24T15:46:01.455Z,100729.91
2022-12-24T15:48:33.854Z,100724.66
2022-12-24T15:51:04.681Z,100734.22
2022-12-24T15:53:31.643Z,100734.25
2022-12-24T15:56:35.013Z,100740.13
2022-12-24T15:59:31.455Z,100739.16
2022-12-24T16:02:33.242Z,100738.34
2022-12-24T16:05:19.001Z,100745.91
2022-12-24T16:08:22.196Z,100739.94
2022-12-24T16:10:52.798Z,100743.34
2022-12-24T16:13:22.369Z,100754.44
2022-12-24T16:15:52.222Z,100760.19
2022-12-24T16:18:24.046Z,100762.19
2022-12-24T16:20:52.180Z,100767.34
2022-12-24T16:23:31.014Z,100768.16
2022-12-24T16:26:04.005Z,100773.28
2022-12-24T16:28:31.923Z,100776.84
2022-12-24T16:30:58.938Z,100775.75
2022-12-24T16:33:25.571Z,100776.72
2022-12-24T16:35:52.555Z,100778.47
2022-12-24T16:39:02.657Z,100783.66
2022-12-24T16:41:29.212Z,100786.03
2022-12-24T16:43:55.714Z,100782.66
2022-12-24T16:50:40.351Z,100779.69
2022-12-24T16:53:17.553Z,100798.78
2022-12-24T16:55:49.646Z,100807.38
2022-12-24T16:58:18.124Z,100803.88
2022-12-24T17:03:57.274Z,100815.59
2022-12-24T17:06:23.889Z,100815.53
2022-12-24T17:08:50.504Z,100811.75
2022-12-24T17:11:16.997Z,100810.78
2022-12-24T17:13:43.583Z,100808.06
2022-12-24T17:16:10.257Z,100806.25
2022-12-24T17:18:36.746Z,100811.28
2022-12-24T17:21:06.948Z,100814.03
2022-12-24T17:23:33.619Z,100820.75
2022-12-24T17:26:00.239Z,100816.22
2022-12-24T17:28:26.773Z,100827.31
2022-12-24T17:35:25.587Z,100840.06
2022-12-24T17:37:52.143Z,100827.97
2022-12-24T17:40:18.711Z,100841.66
2022-12-24T17:42:51.478Z,100841.53
2022-12-24T17:45:18.490Z,100830.94
2022-12-24T17:47:45.107Z,100835.44
2022-12-24T17:50:11.677Z,100835.59
2022-12-24T17:52:38.331Z,100838.16
2022-12-24T17:55:05.551Z,100842.38
2022-12-24T17:57:32.188Z,100834.50
2022-12-24T17:59:58.834Z,100836.81
2022-12-24T18:02:34.532Z,100841.16
2022-12-24T18:05:01.339Z,100837.56
2022-12-24T18:07:28.023Z,100840.81
2022-12-24T18:09:54.620Z,100848.44
2022-12-24T18:12:21.359Z,100857.00
2022-12-24T18:14:48.122Z,100844.84
2022-12-24T18:17:17.787Z,100847.16
2022-12-24T18:20:10.256Z,100864.41
2022-12-24T18:22:36.878Z,100855.63
2022-12-24T18:25:03.633Z,100862.47
2022-12-24T18:27:30.262Z,100862.38
2022-12-24T18:30:14.637Z,100861.63
2022-12-24T18:32:41.522Z,100862.22
2022-12-24T18:35:08.548Z,100861.44
2022-12-24T18:37:35.173Z,100860.41
2022-12-24T18:40:04.403Z,100857.50
2022-12-24T18:42:31.038Z,100855.63
2022-12-24T18:44:57.587Z,100852.94
2022-12-24T18:47:24.195Z,100850.50
2022-12-24T18:49:50.706Z,100846.69
2022-12-24T18:52:22.465Z,100838.00
2022-12-24T18:54:50.500Z,100840.63
2022-12-24T18:57:17.079Z,100845.75
2022-12-24T18:59:43.744Z,100863.81
2022-12-24T19:02:10.340Z,100865.38
2022-12-24T19:05:51.980Z,100857.47
2022-12-24T19:08:55.782Z,100866.78
2022-12-24T19:11:06.250Z,100862.59
2022-12-24T19:13:33.207Z,100869.34
2022-12-24T19:15:59.852Z,100860.75
2022-12-24T19:18:26.964Z,100866.53
2022-12-24T19:20:53.566Z,100878.28
2022-12-24T19:23:20.183Z,100885.91
2022-12-24T19:25:46.761Z,100873.94
2022-12-24T19:28:13.652Z,100874.56
2022-12-24T19:30:44.528Z,100883.25
2022-12-24T19:33:11.249Z,100885.63
2022-12-24T19:35:38.420Z,100889.09
2022-12-24T19:38:05.131Z,100895.00
2022-12-24T19:40:31.906Z,100884.59
2022-12-24T19:43:25.323Z,100900.00
2022-12-24T19:45:57.576Z,100893.78
2022-12-24T19:48:24.219Z,100892.69
2022-12-24T19:50:50.860Z,100891.97
2022-12-24T19:53:17.411Z,100889.94
2022-12-24T19:55:47.164Z,100886.53
2022-12-24T19:58:13.787Z,100885.44
2022-12-24T20:00:40.559Z,100886.06
2022-12-24T20:03:35.832Z,100879.97
2022-12-24T20:06:02.807Z,100883.16
2022-12-24T20:08:30.075Z,100885.72
2022-12-24T20:10:56.954Z,100888.00
2022-12-24T20:13:23.533Z,100891.38
2022-12-24T20:16:28.616Z,100881.69
2022-12-24T20:19:04.540Z,100877.41
2022-12-24T20:21:32.331Z,100871.25
2022-12-24T20:23:58.969Z,100873.13
2022-12-24T20:26:27.950Z,100877.34
2022-12-24T20:28:54.783Z,100875.97
2022-12-24T20:31:25.604Z,100882.75
2022-12-24T20:33:53.095Z,100886.03
2022-12-24T20:36:21.627Z,100882.63
2022-12-24T20:38:48.607Z,100880.00
2022-12-24T20:41:17.767Z,100877.25
2022-12-24T20:43:48.233Z,100889.78
2022-12-24T20:46:19.871Z,100899.34
2022-12-24T20:48:46.901Z,100888.03
2022-12-24T20:51:23.160Z,100894.84
2022-12-24T20:53:51.585Z,100895.53
2022-12-24T20:56:18.692Z,100905.13
2022-12-24T20:58:45.947Z,100905.97
2022-12-24T21:01:20.399Z,100900.19
2022-12-24T21:03:47.621Z,100910.28
2022-12-24T21:06:15.589Z,100899.88
2022-12-24T21:08:42.701Z,100913.53
2022-12-24T21:11:32.426Z,100920.91
2022-12-24T21:13:59.115Z,100914.16
2022-12-24T21:16:25.707Z,100896.94
2022-12-24T21:18:52.304Z,100918.69
2022-12-24T21:21:18.987Z,100914.28
2022-12-24T21:23:45.571Z,100905.88
2022-12-24T21:26:12.553Z,100910.22
2022-12-24T21:28:39.753Z,100913.69
2022-12-24T21:34:02.321Z,100911.97
2022-12-24T21:36:29.374Z,100895.31
2022-12-24T21:38:56.531Z,100922.50
2022-12-24T21:41:23.854Z,100917.34
2022-12-24T21:43:50.690Z,100911.34
2022-12-24T21:46:22.980Z,100916.47
2022-12-24T21:49:10.555Z,100919.31
2022-12-24T21:51:38.967Z,100921.16
2022-12-24T21:54:28.612Z,100917.34
2022-12-24T21:57:20.514Z,100908.47
2022-12-24T21:59:51.129Z,100914.03
2022-12-24T22:02:19.286Z,100895.84
2022-12-24T22:04:46.628Z,100899.47
2022-12-24T22:07:43.759Z,100895.63
2022-12-24T22:10:30.771Z,100890.91
2022-12-24T22:13:00.266Z,100913.31
2022-12-24T22:15:27.391Z,100916.72
2022-12-24T22:17:54.051Z,100903.91
2022-12-24T22:20:20.669Z,100889.16
2022-12-24T22:22:48.841Z,100901.94
2022-12-24T22:25:16.302Z,100905.41
2022-12-24T22:27:43.045Z,100909.38
2022-12-24T22:30:10.478Z,100898.59
2022-12-24T22:32:37.160Z,100897.13
2022-12-24T22:35:03.972Z,100887.03
2022-12-24T22:37:30.553Z,100891.31
2022-12-24T22:39:57.130Z,100896.16
2022-12-24T22:42:23.759Z,100896.97
2022-12-24T22:44:50.333Z,100892.44
2022-12-24T22:47:16.892Z,100889.16
2022-12-24T22:49:43.452Z,100885.50
2022-12-24T22:52:10.206Z,100891.44
2022-12-24T22:54:36.797Z,100887.38
2022-12-24T22:57:03.477Z,100888.41
2022-12-24T22:59:30.043Z,100880.22
2022-12-24T23:01:57.624Z,100873.53
2022-12-24T23:04:25.696Z,100870.69
2022-12-24T23:06:52.316Z,100860.94
2022-12-24T23:09:18.995Z,100867.25
2022-12-24T23:11:45.911Z,100861.97
2022-12-24T23:14:39.778Z,100863.41
2022-12-24T23:17:08.111Z,100847.59
2022-12-24T23:19:35.606Z,100851.81
2022-12-24T23:22:03.604Z,100854.34
2022-12-24T23:24:30.747Z,100854.63
2022-12-24T23:26:58.535Z,100855.75
2022-12-24T23:29:25.203Z,100865.19
2022-12-24T23:31:51.782Z,100850.63
2022-12-24T23:34:18.272Z,100851.19
2022-12-24T23:36:44.886Z,100861.44
2022-12-24T23:39:14.044Z,100877.81
2022-12-24T23:41:40.642Z,100869.38
2022-12-24T23:44:07.560Z,100863.09
2022-12-24T23:46:34.344Z,100863.22
2022-12-24T23:49:00.910Z,100861.44
2022-12-24T23:51:28.133Z,100876.50
2022-12-24T23:53:56.897Z,100875.94
2022-12-24T23:56:24.658Z,100887.91
2022-12-24T23:58:51.860Z,100890.41
